Sault Sainte Marie, Michigan
Current Conditions -  °F | °C
As of 9:55 PM on Tuesday 21 Oct 2014 (Local Time) from KANJ Reporting Station
Clear Clear  
Wind Chill: 33°   Ceiling: Unl
Heat Index: 38°   Visibility: 10mi
Dew Point: 28°   Wind: 7mph
Humidity: 68%   Direction: 60°ENE
Pressure: 30.31"   Gusts: NA
Location:  46.3629°N, 84.3293°W
Report Text: KANJ 220155Z AUTO 06006KT 10SM CLR 03/M02 A3031 RMK AO2 SLP270 T00331022
Loading
Personal Weather Stations






























Interactive Weather Map
Tropical Storm Tracking
New forecast layout! Learn more

10-Day Weather Forecast

Advertisements
Track Severe Weather on mobile